Snow/Ice From: 23-10-2018 22:46 Until: 24-10-2018 08:00 warning for: Snow/Ice Level: Yellow info button
suomi:
Liikennesää: Ajokeli on huono tienpintojen jäätymisen vuoksi.

svenska:
Trafikvädret: Väglaget är dåligt p.g.a. tillfrysning av vägytor.

english:
Traffic weather warning: Bad road conditions are expected because of ice-covered roads. 


Thunder radar more information blitzortung!


Löydät sääaseman tiedot myös:

European Weather Network

Finland Weather Exchange

Weather Underground

AWEKAS



Weather Underground säähistoriasivu

Päivittäin yhteenveto Heinäkuu 8, 2017 Yksiköt:  Englantilaiset    Metriset   Molemmat
« Edellinen Päivä
Seuraava Päivä »
Päivittäin Viikoittain Kuukausittain Vuosittain Mukautettu
  Korkea: Matala: Keskiarvo:
Lämpötila: TemperatureF °F 40.6 °F 58.9 °F
Kastepiste: DewpointF °F 38.7 °F 45.8 °F
Kosteus: Humidity % 35 % 65 %
Tuulen nopeus: WindSpeedMPH mph 0.0 mph 0 mph
Tuulenpuuska: WindSpeedGustMPH mph - -
Tuuli:- - SW
Ilmanpaine: PressureIn in 29.77 in -
Sade: 0.00 in    
Historical Graphs
 
 
Taulukkotiedot Heinäkuu 8, 2017
Aika Lämpötila Kastepiste Ilmanpaine Tuuli Tuulen nopeus Tuulenpuuska Kosteus Sademäärä (tunneittain)
TemperatureF °F DewpointF °F PressureIn in Calm     Humidity % HourlyPrecipIn in
00:00 50.4 °F 45.0 °F 29.88 in Calm     82 % 0.00 in
00:15 49.6 °F 44.1 °F 29.88 in Calm     81 % 0.00 in
00:30 48.9 °F 43.3 °F 29.88 in Calm     81 % 0.00 in
00:45 48.0 °F 43.2 °F 29.88 in Calm     83 % 0.00 in
01:00 47.5 °F 43.0 °F 29.88 in Calm     84 % 0.00 in
01:15 46.9 °F 43.0 °F 29.88 in Calm     86 % 0.00 in
01:30 46.2 °F 42.3 °F 29.88 in Calm     86 % 0.00 in
01:45 45.7 °F 41.9 °F 29.88 in Calm     87 % 0.00 in
02:00 45.0 °F 41.2 °F 29.88 in Calm     87 % 0.00 in
02:15 44.4 °F 41.2 °F 29.88 in Calm     88 % 0.00 in
02:30 44.1 °F 41.0 °F 29.88 in Calm     89 % 0.00 in
02:45 43.5 °F 40.8 °F 29.88 in Calm     90 % 0.00 in
03:00 43.0 °F 40.1 °F 29.88 in Calm     90 % 0.00 in
03:15 42.4 °F 39.7 °F 29.88 in Calm     90 % 0.00 in
03:30 42.1 °F 39.6 °F 29.88 in Calm     91 % 0.00 in
03:45 41.5 °F 39.4 °F 29.88 in Calm     92 % 0.00 in
04:00 41.4 °F 39.2 °F 29.87 in Calm     92 % 0.00 in
04:15 41.0 °F 38.8 °F 29.87 in Calm     92 % 0.00 in
04:30 40.8 °F 38.7 °F 29.87 in Calm     92 % 0.00 in
04:45 40.6 °F 38.7 °F 29.87 in Calm     93 % 0.00 in
05:00 40.6 °F 38.7 °F 29.87 in Calm     93 % 0.00 in
05:15 40.6 °F 38.7 °F 29.87 in Calm     93 % 0.00 in
05:30 40.8 °F 39.0 °F 29.87 in Calm     93 % 0.00 in
05:45 41.2 °F 39.6 °F 29.87 in Calm     94 % 0.00 in
06:00 41.7 °F 40.1 °F 29.87 in Calm     94 % 0.00 in
06:15 42.6 °F 41.2 °F 29.86 in Calm     95 % 0.00 in
06:30 43.3 °F 41.9 °F 29.86 in Calm     95 % 0.00 in
06:45 43.9 °F 42.6 °F 29.86 in Calm     95 % 0.00 in
07:00 45.1 °F 44.1 °F 29.86 in Calm     96 % 0.00 in
07:15 46.9 °F 45.3 °F 29.86 in Calm     94 % 0.00 in
07:30 48.4 °F 45.9 °F 29.86 in Calm     91 % 0.00 in
07:45 49.5 °F 46.0 °F 29.86 in Calm     88 % 0.00 in
08:00 50.5 °F 46.9 °F 29.85 in Calm   1.0 mph 87 % 0.00 in
08:15 52.0 °F 47.5 °F 29.85 in Calm     85 % 0.00 in
08:30 53.2 °F 48.2 °F 29.85 in Calm     83 % 0.00 in
08:45 55.0 °F 48.4 °F 29.85 in Calm     78 % 0.00 in
09:00 57.2 °F 49.6 °F 29.85 in Calm   1.0 mph 76 % 0.00 in
09:15 60.1 °F 50.4 °F 29.84 in Calm     70 % 0.00 in
09:30 61.9 °F 50.0 °F 29.84 in Calm   1.0 mph 65 % 0.00 in
09:45 63.3 °F 51.4 °F 29.84 in Calm   1.0 mph 65 % 0.00 in
10:00 64.8 °F 52.7 °F 29.84 in Calm   1.0 mph 65 % 0.00 in
10:15 65.7 °F 52.2 °F 29.84 in Calm   1.0 mph 62 % 0.00 in
10:30 66.4 °F 51.1 °F 29.84 in Calm   1.0 mph 58 % 0.00 in
10:45 66.7 °F 52.0 °F 29.84 in Calm   2.0 mph 59 % 0.00 in
11:00 67.6 °F 51.3 °F 29.84 in Calm   1.0 mph 56 % 0.00 in
11:15 67.6 °F 48.4 °F 29.84 in Calm   1.0 mph 50 % 0.00 in
11:30 66.7 °F 49.6 °F 29.84 in Calm   2.0 mph 54 % 0.00 in
11:45 68.0 °F 48.7 °F 29.83 in Calm   3.0 mph 50 % 0.00 in
12:00 69.1 °F 49.6 °F 29.83 in Calm   1.0 mph 50 % 0.00 in
12:15 68.5 °F 48.0 °F 29.83 in Calm   2.0 mph 48 % 0.00 in
12:30 67.8 °F 47.5 °F 29.83 in Calm   3.0 mph 48 % 0.00 in
12:45 68.9 °F 47.8 °F 29.83 in Calm   2.0 mph 47 % 0.00 in
13:00 68.9 °F 48.9 °F 29.83 in Calm   3.0 mph 49 % 0.00 in
13:15 69.4 °F 46.6 °F 29.82 in Calm   4.0 mph 44 % 0.00 in
13:30 70.3 °F 48.0 °F 29.82 in Calm   2.0 mph 45 % 0.00 in
13:45 70.3 °F 47.5 °F 29.82 in NW 1.0 mph 5.0 mph 44 % 0.00 in
14:00 71.4 °F 47.8 °F 29.82 in Calm   3.0 mph 43 % 0.00 in
14:15 71.8 °F 48.0 °F 29.81 in Calm   2.0 mph 43 % 0.00 in
14:30 72.0 °F 45.7 °F 29.81 in Calm   3.0 mph 39 % 0.00 in
14:45 71.8 °F 46.8 °F 29.81 in Calm   2.0 mph 41 % 0.00 in
15:00 72.7 °F 44.8 °F 29.81 in Calm   2.0 mph 37 % 0.00 in
15:15 72.9 °F 47.7 °F 29.81 in NE 1.0 mph 4.0 mph 41 % 0.00 in
15:30 73.0 °F 46.6 °F 29.80 in Calm   4.0 mph 39 % 0.00 in
15:45 73.2 °F 45.3 °F 29.80 in Calm   2.0 mph 37 % 0.00 in
16:00 73.4 °F 47.7 °F 29.79 in Calm   3.0 mph 40 % 0.00 in
16:15 73.2 °F 44.1 °F 29.79 in North 1.0 mph 3.0 mph 35 % 0.00 in
16:30 71.2 °F 50.0 °F 29.79 in Calm     47 % 0.00 in
16:45 70.5 °F 46.9 °F 29.79 in Calm   1.0 mph 43 % 0.00 in
17:00 71.1 °F 45.5 °F 29.78 in Calm   1.0 mph 40 % 0.00 in
17:15 70.3 °F 47.5 °F 29.79 in Calm   4.0 mph 44 % 0.00 in
17:30 69.4 °F 47.1 °F 29.78 in Calm     45 % 0.00 in
17:45 69.6 °F 47.3 °F 29.78 in Calm     45 % 0.00 in
18:00 70.5 °F 46.4 °F 29.78 in Calm   1.0 mph 42 % 0.00 in
18:15 70.5 °F 43.7 °F 29.78 in Calm   2.0 mph 38 % 0.00 in
18:30 70.0 °F 45.1 °F 29.78 in Calm     41 % 0.00 in
18:45 70.3 °F 44.2 °F 29.78 in Calm   4.0 mph 39 % 0.00 in
19:00 71.2 °F 46.2 °F 29.77 in Calm     41 % 0.00 in
19:15 70.9 °F 44.1 °F 29.78 in Calm   1.0 mph 38 % 0.00 in
19:30 71.1 °F 44.8 °F 29.77 in Calm   1.0 mph 39 % 0.00 in
19:45 70.9 °F 44.6 °F 29.78 in Calm   2.0 mph 39 % 0.00 in
20:00 70.3 °F 45.5 °F 29.78 in Calm   1.0 mph 41 % 0.00 in
20:30 69.6 °F 47.8 °F 29.78 in Calm     46 % 0.00 in
20:45 68.7 °F 47.1 °F 29.78 in Calm     46 % 0.00 in
21:00 68.4 °F 49.5 °F 29.78 in Calm     51 % 0.00 in
21:15 67.8 °F 49.1 °F 29.77 in Calm     51 % 0.00 in
21:30 66.9 °F 48.7 °F 29.78 in Calm     52 % 0.00 in
21:45 66.6 °F 51.8 °F 29.78 in Calm     59 % 0.00 in
22:00 65.7 °F 54.9 °F 29.78 in Calm     68 % 0.00 in
22:15 64.9 °F 53.6 °F 29.78 in Calm     67 % 0.00 in
22:30 64.4 °F 55.6 °F 29.77 in Calm     73 % 0.00 in
22:45 63.7 °F 54.9 °F 29.77 in Calm     73 % 0.00 in
23:00 62.8 °F 54.7 °F 29.77 in Calm     75 % 0.00 in
23:15 61.9 °F 55.2 °F 29.78 in Calm     79 % 0.00 in
23:30 61.2 °F 55.0 °F 29.77 in Calm     80 % 0.00 in
23:45 60.6 °F 53.1 °F 29.78 in Calm     76 % 0.00 in
Esan sääasema
Terveisin Weather Underground - 2.75 mb

Alkuperäinen skripti  Jim McMurry - jmcmurry@mwt.net Sovitettu myös templatelle  Wim van der Kuil - Leuven-Template.eu

Laitteet joita käytämme:

Sääasema
Davis VP2

Sääasemaohjelma
Cumulus

Sääaseman tietokone
Asus EeePC

Palveluntarjoaja
Suncomet

Davis VP2

Cumulus

Asus EeePC

Suncomet